Terminal Aerodrome Forecast
Issued by NWS Atlanta, GA

Home | Current Version | Previous Version | Text Only | Print | Product List | Glossary On
Versions: 1 2 3 4 5 6 7 8 9 10 11 12 13 14 15
000
FTUS42 KFFC 202326
TAFMCN
TAF
KMCN 202326Z 2100/2124 24003KT P6SM VCSH SCT060
     FM210100 00000KT P6SM SCT250
     FM211400 22004KT P6SM FEW040
     FM211800 16006KT P6SM VCSH SCT050=

USA.gov is the U.S. government's official web portal to all federal, state and local government web resources and services.